Time;durP1;ratioP1;P1;durP2;ratioP2;P2;SDS_P1;SDS_P2;PMS_P1;PMS_P2;Temp;Humidity;BMP_temperature;BMP_pressure;BME280_temperature;BME280_humidity;BME280_pressure;Samples;Min_cycle;Max_cycle;Signal;HPM_P1;HPM_P2
2021/12/26 00:00:34;;;;;;;15.70;11.53;;;2.40;99.90;;;;;;5076167;28;20198;-89
2021/12/26 00:03:01;;;;;;;17.20;10.83;;;2.60;99.90;;;;;;5076335;28;20949;-85
2021/12/26 00:05:34;;;;;;;15.83;11.03;;;2.50;99.90;;;;;;5076079;28;20451;-85
2021/12/26 00:08:08;;;;;;;16.27;10.17;;;2.20;99.90;;;;;;5076189;28;20431;-86
2021/12/26 00:10:37;;;;;;;14.83;9.53;;;2.30;99.90;;;;;;5075983;28;20924;-83
2021/12/26 00:13:05;;;;;;;16.80;10.53;;;2.10;99.90;;;;;;5076012;28;20431;-83
2021/12/26 00:15:34;;;;;;;15.53;10.20;;;2.00;99.90;;;;;;5075670;28;20461;-88
2021/12/26 00:18:01;;;;;;;15.70;10.50;;;2.20;99.90;;;;;;5075771;28;20977;-81
2021/12/26 00:20:30;;;;;;;15.53;10.07;;;2.20;99.90;;;;;;5075986;28;20803;-83
2021/12/26 00:22:57;;;;;;;15.03;10.17;;;2.40;99.90;;;;;;5075910;28;20435;-85
2021/12/26 00:25:25;;;;;;;16.63;10.27;;;2.50;99.90;;;;;;5075759;28;20818;-85
2021/12/26 00:27:53;;;;;;;13.17;10.00;;;2.50;99.90;;;;;;5075374;28;20962;-84
2021/12/26 00:30:22;;;;;;;18.40;10.10;;;2.40;99.90;;;;;;5075397;28;20457;-83
2021/12/26 00:32:50;;;;;;;14.67;9.70;;;2.20;99.90;;;;;;5075634;28;20461;-86
2021/12/26 00:35:21;;;;;;;16.03;10.17;;;2.30;99.90;;;;;;5075389;28;20431;-84
2021/12/26 00:37:48;;;;;;;16.63;11.00;;;2.20;99.90;;;;;;5075529;28;20509;-85
2021/12/26 00:40:19;;;;;;;14.67;10.30;;;2.30;99.90;;;;;;5073907;28;20484;-87
2021/12/26 00:42:51;;;;;;;19.70;12.10;;;2.20;99.90;;;;;;5075498;28;20431;-83
2021/12/26 00:45:19;;;;;;;14.30;10.17;;;2.10;99.90;;;;;;5075234;28;20458;-83
2021/12/26 00:47:46;;;;;;;15.53;10.87;;;2.00;99.90;;;;;;5075747;28;20442;-82
2021/12/26 00:50:16;;;;;;;16.40;10.83;;;2.10;99.90;;;;;;5075113;28;20466;-84
2021/12/26 00:52:45;;;;;;;15.83;12.13;;;2.20;99.90;;;;;;5075297;28;20450;-85
2021/12/26 00:55:19;;;;;;;21.80;15.77;;;2.50;99.90;;;;;;5075553;28;20454;-86
2021/12/26 00:57:47;;;;;;;29.83;19.73;;;2.60;99.90;;;;;;5075332;28;20474;-85
2021/12/26 01:00:20;;;;;;;32.93;20.07;;;2.50;99.90;;;;;;5074534;28;20462;-88
2021/12/26 01:02:48;;;;;;;25.43;18.77;;;2.60;99.90;;;;;;5075059;28;20445;-88
2021/12/26 01:05:23;;;;;;;27.83;18.00;;;2.50;99.90;;;;;;5075046;28;20434;-86
2021/12/26 01:07:57;;;;;;;30.27;21.37;;;2.60;99.90;;;;;;5075015;28;20525;-83
2021/12/26 01:10:26;;;;;;;28.00;19.37;;;2.60;99.90;;;;;;5075278;28;20457;-84
2021/12/26 01:12:54;;;;;;;32.17;22.50;;;2.60;99.90;;;;;;5074877;28;20442;-82
2021/12/26 01:15:23;;;;;;;33.30;22.83;;;2.30;99.90;;;;;;5074771;28;20454;-83
2021/12/26 01:17:55;;;;;;;33.60;22.43;;;2.20;99.90;;;;;;5074970;28;20843;-81
2021/12/26 01:20:41;;;;;;;29.30;21.27;;;2.20;99.90;;;;;;5074821;28;20431;-86
2021/12/26 01:23:11;;;;;;;30.77;20.70;;;2.40;99.90;;;;;;5074959;28;20443;-83
2021/12/26 01:25:40;;;;;;;29.20;21.53;;;2.50;99.90;;;;;;5074389;28;20774;-85
2021/12/26 01:28:09;;;;;;;41.73;28.30;;;2.70;99.90;;;;;;5075091;28;20442;-81
2021/12/26 01:30:39;;;;;;;40.13;28.33;;;2.80;99.90;;;;;;5075051;28;20458;-83
2021/12/26 01:33:09;;;;;;;29.27;21.67;;;2.90;99.90;;;;;;5074635;28;20526;-90
2021/12/26 01:35:37;;;;;;;26.60;18.83;;;3.00;99.90;;;;;;5074385;28;20438;-81
2021/12/26 01:38:10;;;;;;;29.17;20.03;;;2.80;99.90;;;;;;5074429;28;20513;-87
2021/12/26 01:40:39;;;;;;;23.20;18.60;;;2.70;99.90;;;;;;5079362;28;20459;-87
2021/12/26 01:43:08;;;;;;;20.80;15.70;;;2.90;99.90;;;;;;5073542;28;20529;-85
2021/12/26 01:45:35;;;;;;;20.47;14.53;;;2.60;99.90;;;;;;5072743;28;20474;-86
2021/12/26 01:48:06;;;;;;;19.83;15.43;;;2.40;99.90;;;;;;5074159;28;20447;-82
2021/12/26 01:50:34;;;;;;;18.90;14.23;;;2.40;99.90;;;;;;5074255;28;20469;-84
2021/12/26 01:53:01;;;;;;;20.70;14.43;;;2.50;99.90;;;;;;5074048;28;20435;-89
2021/12/26 01:55:39;;;;;;;21.87;16.13;;;2.50;99.90;;;;;;5074166;28;20431;-86
2021/12/26 01:58:08;;;;;;;23.57;16.53;;;2.40;99.90;;;;;;5074160;28;20537;-80
2021/12/26 02:00:38;;;;;;;23.70;14.37;;;2.50;99.90;;;;;;5074397;28;20446;-88
2021/12/26 02:03:07;;;;;;;19.33;13.53;;;2.40;99.90;;;;;;5074411;28;20427;-85
2021/12/26 02:05:37;;;;;;;21.03;14.73;;;2.60;99.90;;;;;;5073909;28;20427;-85
2021/12/26 02:08:06;;;;;;;21.40;14.63;;;2.50;99.90;;;;;;5074114;28;20423;-84
2021/12/26 02:10:35;;;;;;;28.30;18.33;;;2.70;99.90;;;;;;5074301;28;20449;-81
2021/12/26 02:13:03;;;;;;;27.23;19.50;;;2.80;99.90;;;;;;5073990;28;20443;-82
2021/12/26 02:15:32;;;;;;;27.47;20.13;;;2.70;99.90;;;;;;5074114;28;20453;-86
2021/12/26 02:17:59;;;;;;;26.37;18.63;;;2.60;99.90;;;;;;5076547;28;20844;-86
2021/12/26 02:20:37;;;;;;;25.33;17.23;;;2.70;99.90;;;;;;5076994;28;20898;-84
2021/12/26 02:23:12;;;;;;;23.37;16.83;;;2.70;99.90;;;;;;5076487;28;20443;-85
2021/12/26 02:28:28;;;;;;;24.03;15.77;;;2.70;99.90;;;;;;5074773;28;21020;-88
2021/12/26 02:30:58;;;;;;;20.93;15.13;;;2.80;99.90;;;;;;5074538;28;20814;-88
2021/12/26 02:33:30;;;;;;;25.30;16.47;;;2.90;99.90;;;;;;5074525;28;20443;-87
2021/12/26 02:35:59;;;;;;;22.83;14.33;;;2.90;99.90;;;;;;5073633;28;20960;-85
2021/12/26 02:38:27;;;;;;;21.73;14.80;;;2.90;99.90;;;;;;5074019;28;20480;-89
2021/12/26 02:40:57;;;;;;;24.20;14.73;;;2.60;99.90;;;;;;5074111;28;20436;-86
2021/12/26 02:43:29;;;;;;;21.80;14.37;;;2.70;99.90;;;;;;5074013;28;20438;-84
2021/12/26 02:46:06;;;;;;;22.90;14.40;;;2.90;99.90;;;;;;5073520;28;20446;-85
2021/12/26 02:48:35;;;;;;;19.97;13.70;;;2.80;99.90;;;;;;5073656;28;20440;-87
2021/12/26 02:51:05;;;;;;;22.17;14.23;;;2.70;99.90;;;;;;5074751;28;20803;-88
2021/12/26 02:53:37;;;;;;;22.97;15.03;;;2.80;99.90;;;;;;5074567;28;20442;-88
2021/12/26 02:56:05;;;;;;;24.27;14.57;;;2.80;99.90;;;;;;5073839;28;20449;-84
2021/12/26 02:58:33;;;;;;;23.73;14.50;;;2.90;99.90;;;;;;5073458;28;20485;-87
2021/12/26 03:01:05;;;;;;;25.13;14.20;;;3.00;99.90;;;;;;5073825;28;20913;-84
2021/12/26 03:03:33;;;;;;;25.90;18.90;;;3.00;99.90;;;;;;5072556;28;20440;-85
2021/12/26 03:06:08;;;;;;;25.53;16.97;;;3.10;99.90;;;;;;5073443;28;20539;-82
2021/12/26 03:08:35;;;;;;;25.07;15.70;;;2.70;99.90;;;;;;5073456;28;20434;-84
2021/12/26 03:11:03;;;;;;;26.90;16.60;;;2.90;99.90;;;;;;5073826;28;20438;-85
2021/12/26 03:13:36;;;;;;;23.63;15.93;;;3.00;99.90;;;;;;5073647;28;20457;-86
2021/12/26 03:16:03;;;;;;;26.23;17.93;;;3.10;99.90;;;;;;5072930;28;20545;-87
2021/12/26 03:18:33;;;;;;;24.03;16.27;;;2.80;99.90;;;;;;5073280;28;20972;-88
2021/12/26 03:21:00;;;;;;;24.30;14.70;;;2.90;99.90;;;;;;5073261;28;20481;-83
2021/12/26 03:23:29;;;;;;;24.40;14.67;;;3.00;99.90;;;;;;5073350;28;20453;-85
2021/12/26 03:26:02;;;;;;;26.27;14.77;;;3.10;99.90;;;;;;5077632;28;20446;-84
2021/12/26 03:28:30;;;;;;;24.93;14.10;;;3.10;99.90;;;;;;5077457;28;20450;-89
2021/12/26 03:31:00;;;;;;;23.73;14.03;;;3.10;99.90;;;;;;5077604;28;20461;-83
2021/12/26 03:33:28;;;;;;;25.57;15.10;;;3.10;99.90;;;;;;5077371;28;20435;-85
2021/12/26 03:35:55;;;;;;;21.73;14.80;;;3.00;99.90;;;;;;5076899;28;20423;-84
2021/12/26 03:38:25;;;;;;;26.20;15.30;;;2.70;99.90;;;;;;5077185;28;20857;-85
2021/12/26 03:40:55;;;;;;;20.70;14.17;;;2.70;99.90;;;;;;5076791;28;20446;-89
2021/12/26 03:43:28;;;;;;;23.37;14.57;;;2.70;99.90;;;;;;5077075;28;20850;-89
2021/12/26 03:45:56;;;;;;;25.63;15.23;;;2.70;99.90;;;;;;5076410;28;20946;-86
2021/12/26 03:48:27;;;;;;;22.37;14.67;;;2.70;99.90;;;;;;5076697;28;20447;-87
2021/12/26 03:50:55;;;;;;;23.17;15.37;;;2.70;99.90;;;;;;5076219;28;20502;-82
2021/12/26 03:53:25;;;;;;;23.30;14.70;;;2.60;99.90;;;;;;5076707;28;20579;-86
2021/12/26 03:55:54;;;;;;;27.33;15.33;;;2.70;99.90;;;;;;5076485;28;20442;-86
2021/12/26 03:58:21;;;;;;;22.87;15.60;;;2.70;99.90;;;;;;5076566;28;20478;-85
2021/12/26 04:00:49;;;;;;;28.73;16.07;;;2.60;99.90;;;;;;5076442;28;20454;-83
2021/12/26 04:03:16;;;;;;;22.90;14.73;;;2.80;99.90;;;;;;5076231;28;20437;-82
2021/12/26 04:05:49;;;;;;;25.20;15.43;;;2.90;99.90;;;;;;5076156;28;20450;-86
2021/12/26 04:08:17;;;;;;;24.53;14.70;;;2.70;99.90;;;;;;5076368;28;20438;-82
2021/12/26 04:10:45;;;;;;;22.80;15.23;;;2.70;99.90;;;;;;5075970;28;20810;-85
2021/12/26 04:13:13;;;;;;;25.13;15.50;;;2.70;99.90;;;;;;5076459;28;20818;-83
2021/12/26 04:15:41;;;;;;;24.60;15.67;;;2.80;99.90;;;;;;5075951;28;20457;-85
2021/12/26 04:18:11;;;;;;;20.63;14.03;;;2.90;99.90;;;;;;5076029;28;20470;-83
2021/12/26 04:20:41;;;;;;;24.80;15.87;;;3.00;99.90;;;;;;5075846;28;20450;-82
2021/12/26 04:23:09;;;;;;;27.40;16.63;;;2.80;99.90;;;;;;5076508;28;20492;-81
2021/12/26 04:25:38;;;;;;;26.03;15.43;;;2.60;99.90;;;;;;5076135;28;20965;-83
2021/12/26 04:28:05;;;;;;;23.90;15.27;;;2.80;99.90;;;;;;5076235;28;20449;-89
2021/12/26 04:30:33;;;;;;;29.63;16.17;;;2.90;99.90;;;;;;5075203;28;20450;-84
2021/12/26 04:33:01;;;;;;;27.80;16.37;;;2.80;99.90;;;;;;5088091;28;20456;-83
2021/12/26 04:35:30;;;;;;;25.57;14.87;;;2.90;99.90;;;;;;5094990;28;20527;-80
2021/12/26 04:37:58;;;;;;;26.40;16.33;;;2.70;99.90;;;;;;5095028;28;20456;-85
2021/12/26 04:40:24;;;;;;;24.23;16.50;;;2.80;99.90;;;;;;5095702;28;20430;-86
2021/12/26 04:42:52;;;;;;;27.90;16.17;;;2.90;99.90;;;;;;5095185;28;20517;-83
2021/12/26 04:45:18;;;;;;;28.97;16.87;;;2.60;99.90;;;;;;5095702;28;20485;-83
2021/12/26 04:47:50;;;;;;;26.53;15.77;;;2.80;99.90;;;;;;5095388;28;20956;-84
2021/12/26 04:50:23;;;;;;;26.47;15.70;;;3.00;99.90;;;;;;5095600;28;20469;-85
2021/12/26 04:52:52;;;;;;;26.10;16.30;;;2.80;99.90;;;;;;5095289;28;20442;-82
2021/12/26 04:55:23;;;;;;;25.23;15.53;;;2.80;99.90;;;;;;5095498;28;20448;-86
2021/12/26 04:57:51;;;;;;;26.90;15.57;;;3.00;99.90;;;;;;5095464;28;20449;-86
2021/12/26 05:00:26;;;;;;;25.67;15.90;;;3.20;99.90;;;;;;5095379;28;20500;-82
2021/12/26 05:02:54;;;;;;;24.53;15.63;;;3.20;99.90;;;;;;5095531;28;20449;-86
2021/12/26 05:05:21;;;;;;;27.73;16.23;;;3.30;99.90;;;;;;5095444;28;20522;-85
2021/12/26 05:07:49;;;;;;;22.70;15.27;;;3.20;99.90;;;;;;5095757;28;20437;-84
2021/12/26 05:10:18;;;;;;;23.27;16.03;;;3.00;99.90;;;;;;5095393;28;20454;-85
2021/12/26 05:12:45;;;;;;;24.37;16.17;;;2.80;99.90;;;;;;5095394;28;20434;-86
2021/12/26 05:15:16;;;;;;;24.20;16.30;;;2.70;99.90;;;;;;5095250;28;20457;-84
2021/12/26 05:17:43;;;;;;;26.10;16.67;;;2.70;99.90;;;;;;5095027;28;20441;-85
2021/12/26 05:20:12;;;;;;;25.97;16.37;;;2.90;99.90;;;;;;5094917;28;20517;-83
2021/12/26 05:22:40;;;;;;;25.03;16.30;;;3.00;99.90;;;;;;5094705;28;20446;-83
2021/12/26 05:25:09;;;;;;;21.00;15.83;;;3.10;99.90;;;;;;5094975;28;20449;-83
2021/12/26 05:27:39;;;;;;;21.57;16.07;;;3.20;99.90;;;;;;5094470;28;20446;-83
2021/12/26 05:30:11;;;;;;;29.23;18.33;;;3.10;99.90;;;;;;5094769;28;20438;-82
2021/12/26 05:32:39;;;;;;;26.60;16.53;;;3.40;99.90;;;;;;5095306;28;20303;-82
2021/12/26 05:35:08;;;;;;;22.27;15.60;;;3.50;99.90;;;;;;5095313;28;20453;-83
2021/12/26 05:37:37;;;;;;;23.17;15.43;;;3.50;99.90;;;;;;5082113;28;20820;-82
2021/12/26 05:40:06;;;;;;;22.97;15.93;;;3.50;99.90;;;;;;5074119;28;20494;-82
2021/12/26 05:42:35;;;;;;;24.87;15.83;;;3.50;99.90;;;;;;5075734;28;20434;-81
2021/12/26 05:45:02;;;;;;;22.47;14.70;;;3.30;99.90;;;;;;5074585;28;20446;-82
2021/12/26 05:47:31;;;;;;;19.30;14.50;;;3.50;99.90;;;;;;5074704;28;20442;-80
2021/12/26 05:49:58;;;;;;;22.23;15.53;;;3.30;99.90;;;;;;5075288;28;20473;-79
2021/12/26 05:52:25;;;;;;;22.70;14.97;;;3.30;99.90;;;;;;5074349;28;20431;-80
2021/12/26 05:54:57;;;;;;;19.63;14.63;;;3.40;99.90;;;;;;5074450;28;20452;-80
2021/12/26 05:57:24;;;;;;;19.80;14.93;;;3.60;99.90;;;;;;5074741;28;20455;-81
2021/12/26 05:59:54;;;;;;;23.87;15.20;;;3.50;99.90;;;;;;5074669;28;20501;-82
2021/12/26 06:02:21;;;;;;;20.90;15.57;;;3.40;99.90;;;;;;5091791;28;20453;-81
2021/12/26 06:04:49;;;;;;;23.47;15.57;;;3.40;99.90;;;;;;5093838;28;20951;-82
2021/12/26 06:07:16;;;;;;;25.27;16.87;;;3.50;99.90;;;;;;5094106;28;20431;-84
2021/12/26 06:09:42;;;;;;;21.73;15.17;;;3.50;99.90;;;;;;5093941;28;20213;-83
2021/12/26 06:12:14;;;;;;;19.37;15.43;;;3.60;99.90;;;;;;5094835;28;20441;-83
2021/12/26 06:14:41;;;;;;;20.63;15.83;;;3.70;99.90;;;;;;5094233;28;20477;-83
2021/12/26 06:17:10;;;;;;;19.40;14.80;;;3.70;99.90;;;;;;5095551;28;20941;-83
2021/12/26 06:19:39;;;;;;;21.90;15.07;;;3.60;99.90;;;;;;5095474;28;20495;-81
2021/12/26 06:22:06;;;;;;;22.73;15.07;;;3.80;99.90;;;;;;5094730;28;20442;-82
2021/12/26 06:24:34;;;;;;;22.83;15.37;;;3.80;99.90;;;;;;5094737;28;20779;-81
2021/12/26 06:27:02;;;;;;;21.93;15.50;;;3.20;99.90;;;;;;5093661;28;20437;-84
2021/12/26 06:29:30;;;;;;;20.87;14.30;;;3.30;99.90;;;;;;5093474;28;20464;-82
2021/12/26 06:31:58;;;;;;;20.10;14.67;;;3.40;99.90;;;;;;5093688;28;20913;-81
2021/12/26 06:34:27;;;;;;;18.40;13.40;;;3.40;99.90;;;;;;5093825;28;20445;-80
2021/12/26 06:36:55;;;;;;;20.00;15.20;;;3.40;99.90;;;;;;5093315;28;20438;-85
2021/12/26 06:39:23;;;;;;;19.47;14.50;;;3.50;99.90;;;;;;5094131;28;20484;-88
2021/12/26 06:41:50;;;;;;;21.57;15.47;;;3.40;99.90;;;;;;5094700;28;20422;-88
2021/12/26 06:44:19;;;;;;;20.73;15.77;;;3.40;99.90;;;;;;5093551;28;20434;-83
2021/12/26 06:46:49;;;;;;;19.83;14.33;;;3.60;99.90;;;;;;5093866;28;20197;-83
2021/12/26 06:49:21;;;;;;;19.87;14.53;;;3.80;99.90;;;;;;5088813;28;20473;-84
2021/12/26 06:51:48;;;;;;;19.03;14.57;;;3.60;99.90;;;;;;5074503;28;20454;-83
2021/12/26 06:54:16;;;;;;;17.07;14.77;;;3.50;99.90;;;;;;5074912;28;20454;-88
2021/12/26 06:56:43;;;;;;;19.27;15.70;;;3.70;99.90;;;;;;5077626;28;20442;-84
2021/12/26 06:59:10;;;;;;;16.87;14.50;;;3.70;99.90;;;;;;5075479;28;20489;-88
2021/12/26 07:01:37;;;;;;;21.40;15.73;;;3.60;99.90;;;;;;5079362;28;20484;-85
2021/12/26 07:04:06;;;;;;;17.87;14.40;;;3.60;99.90;;;;;;5080062;28;20431;-86
2021/12/26 07:06:36;;;;;;;19.37;14.93;;;3.80;99.90;;;;;;5080117;28;20463;-85
2021/12/26 07:09:05;;;;;;;20.37;15.67;;;3.90;99.90;;;;;;5080668;28;20447;-88
2021/12/26 07:11:31;;;;;;;18.13;15.60;;;3.90;99.90;;;;;;5078363;28;20450;-85
2021/12/26 07:14:00;;;;;;;20.33;15.57;;;4.00;99.90;;;;;;5078368;28;20443;-86
2021/12/26 07:16:27;;;;;;;17.30;14.93;;;4.00;99.90;;;;;;5078334;28;20485;-88
2021/12/26 07:18:56;;;;;;;16.63;14.70;;;3.80;99.90;;;;;;5078055;28;20443;-83
2021/12/26 07:21:24;;;;;;;16.60;14.80;;;3.90;99.90;;;;;;5077476;28;20444;-84
2021/12/26 07:23:52;;;;;;;20.43;15.60;;;4.00;99.90;;;;;;5077174;28;20290;-81
2021/12/26 07:26:19;;;;;;;17.47;14.60;;;4.20;99.90;;;;;;5076425;28;20213;-81
2021/12/26 07:28:47;;;;;;;20.23;15.03;;;4.20;99.90;;;;;;5077257;28;20659;-82
2021/12/26 07:31:14;;;;;;;16.40;13.77;;;4.20;99.90;;;;;;5077575;28;20430;-84
2021/12/26 07:33:41;;;;;;;19.87;15.23;;;4.30;99.90;;;;;;5077097;28;20664;-85
2021/12/26 07:36:08;;;;;;;19.63;14.23;;;4.10;99.90;;;;;;5077372;28;20190;-84
2021/12/26 07:38:36;;;;;;;16.87;14.27;;;3.90;99.90;;;;;;5077695;28;20201;-84
2021/12/26 07:41:03;;;;;;;19.50;15.10;;;4.00;99.90;;;;;;5077325;28;20233;-86
2021/12/26 07:43:32;;;;;;;17.23;13.83;;;4.00;99.90;;;;;;5079054;28;20217;-85
2021/12/26 07:46:01;;;;;;;19.17;14.37;;;3.80;99.90;;;;;;5079328;28;20450;-85
2021/12/26 07:48:29;;;;;;;14.60;13.10;;;3.80;99.90;;;;;;5079871;28;20764;-86
2021/12/26 07:50:55;;;;;;;19.70;16.13;;;3.80;99.90;;;;;;5080359;28;20441;-85
2021/12/26 07:53:28;;;;;;;18.70;14.43;;;3.90;99.90;;;;;;5076867;28;20190;-88
2021/12/26 07:55:57;;;;;;;19.17;14.10;;;4.10;99.90;;;;;;5076828;28;20455;-83
2021/12/26 07:58:26;;;;;;;15.60;13.67;;;4.10;99.90;;;;;;5077073;28;20438;-81
2021/12/26 08:00:53;;;;;;;15.67;14.00;;;4.20;99.90;;;;;;5076306;28;20485;-80
2021/12/26 08:03:20;;;;;;;16.90;14.90;;;4.30;99.90;;;;;;5077038;28;20452;-84
2021/12/26 08:05:48;;;;;;;17.33;14.87;;;4.30;99.90;;;;;;5076274;28;20549;-88
2021/12/26 08:08:21;;;;;;;15.87;14.27;;;4.40;99.90;;;;;;5087585;28;20204;-80
2021/12/26 08:10:49;;;;;;;16.70;14.90;;;4.40;99.90;;;;;;5075103;28;20228;-85
2021/12/26 08:13:18;;;;;;;16.60;14.60;;;4.40;99.90;;;;;;5075197;28;20193;-80
2021/12/26 08:15:45;;;;;;;16.53;14.37;;;4.40;99.90;;;;;;5080919;28;20201;-82
2021/12/26 08:18:13;;;;;;;16.77;14.50;;;4.40;99.90;;;;;;5080812;28;20205;-82
2021/12/26 08:20:40;;;;;;;17.03;14.20;;;4.00;99.90;;;;;;5075319;28;20222;-80
2021/12/26 08:23:08;;;;;;;19.43;14.93;;;4.00;99.90;;;;;;5075185;28;20586;-81
2021/12/26 08:25:35;;;;;;;17.00;14.53;;;4.10;99.90;;;;;;5075437;28;20442;-81
2021/12/26 08:28:02;;;;;;;17.73;15.30;;;4.30;99.90;;;;;;5075570;28;20202;-89
2021/12/26 08:30:34;;;;;;;19.70;15.37;;;4.30;99.90;;;;;;5075755;28;20194;-81
2021/12/26 08:33:06;;;;;;;18.30;15.43;;;4.40;99.90;;;;;;5075750;28;20205;-81
2021/12/26 08:35:33;;;;;;;16.30;14.60;;;4.50;99.90;;;;;;5075542;28;20198;-82
2021/12/26 08:38:02;;;;;;;16.47;14.67;;;4.50;99.90;;;;;;5081742;28;20657;-81
2021/12/26 08:40:29;;;;;;;15.77;14.13;;;4.50;99.90;;;;;;5074275;28;20233;-80
2021/12/26 08:42:57;;;;;;;19.13;15.50;;;4.40;99.90;;;;;;5074543;28;20806;-80
2021/12/26 08:45:26;;;;;;;16.27;14.50;;;4.00;99.90;;;;;;5074390;28;20190;-81
2021/12/26 08:47:57;;;;;;;18.00;14.80;;;3.70;99.90;;;;;;5074709;28;20447;-81
2021/12/26 08:50:25;;;;;;;18.37;16.00;;;3.80;99.90;;;;;;5078934;28;20472;-85
2021/12/26 08:52:52;;;;;;;17.20;15.00;;;3.80;99.90;;;;;;5086685;28;20499;-84
2021/12/26 08:55:20;;;;;;;19.20;14.77;;;3.90;99.90;;;;;;5082791;28;20193;-83
2021/12/26 08:57:47;;;;;;;17.17;14.33;;;3.90;99.90;;;;;;5080815;28;20255;-82
2021/12/26 09:00:15;;;;;;;18.87;15.97;;;3.70;99.90;;;;;;5082244;28;20241;-82
2021/12/26 09:02:43;;;;;;;19.60;16.03;;;3.70;99.90;;;;;;5074840;28;20220;-84
2021/12/26 09:05:12;;;;;;;16.97;15.17;;;3.60;99.90;;;;;;5074140;28;20814;-87
2021/12/26 09:07:41;;;;;;;19.33;16.20;;;3.80;99.90;;;;;;5074433;28;20434;-80
2021/12/26 09:10:10;;;;;;;18.67;16.33;;;4.00;99.90;;;;;;5074739;28;20960;-80
2021/12/26 09:12:39;;;;;;;20.08;16.77;;;4.00;99.90;;;;;;5086490;28;20438;-85
2021/12/26 09:15:08;;;;;;;20.83;16.33;;;3.80;99.90;;;;;;5091474;28;20217;-83
2021/12/26 09:17:35;;;;;;;20.60;16.57;;;3.90;99.90;;;;;;5082588;28;20427;-81
2021/12/26 09:20:03;;;;;;;20.93;16.67;;;4.00;99.90;;;;;;5075020;28;20486;-81
2021/12/26 09:22:36;;;;;;;20.20;15.97;;;4.00;99.90;;;;;;5074117;28;20545;-81
2021/12/26 09:25:09;;;;;;;19.83;16.23;;;3.70;99.90;;;;;;5074649;28;20610;-84
2021/12/26 09:27:42;;;;;;;21.30;16.73;;;3.50;99.90;;;;;;5074940;28;20952;-85
2021/12/26 09:30:12;;;;;;;20.67;16.97;;;3.40;99.90;;;;;;5076071;28;20454;-86
2021/12/26 09:32:43;;;;;;;22.03;17.43;;;3.60;99.90;;;;;;5074851;28;20510;-87
2021/12/26 09:35:16;;;;;;;18.20;16.23;;;3.70;99.90;;;;;;5074922;28;20439;-88
2021/12/26 09:37:47;;;;;;;21.87;16.63;;;3.80;99.90;;;;;;5074497;28;20821;-88
2021/12/26 09:40:17;;;;;;;20.23;16.63;;;4.00;99.90;;;;;;5075623;28;20312;-89
2021/12/26 09:42:45;;;;;;;22.50;17.63;;;4.10;99.90;;;;;;5075240;28;20201;-87
2021/12/26 09:45:12;;;;;;;18.88;16.15;;;4.20;99.90;;;;;;5075659;28;20435;-85
2021/12/26 09:47:40;;;;;;;19.63;17.37;;;4.20;99.90;;;;;;5075424;28;20209;-88
2021/12/26 09:50:09;;;;;;;18.87;16.17;;;4.30;99.90;;;;;;5074902;28;20696;-88
2021/12/26 09:52:36;;;;;;;18.97;16.80;;;4.20;99.90;;;;;;5075013;28;20210;-86
2021/12/26 09:55:06;;;;;;;19.20;16.77;;;4.30;99.90;;;;;;5074477;28;20607;-84
2021/12/26 09:57:33;;;;;;;20.63;17.13;;;4.50;99.90;;;;;;5074827;28;20202;-87
2021/12/26 09:59:59;;;;;;;19.40;17.27;;;4.60;99.90;;;;;;5075589;28;20230;-88
2021/12/26 10:02:30;;;;;;;18.70;16.57;;;4.60;99.90;;;;;;5075506;28;20206;-87
2021/12/26 10:04:59;;;;;;;22.47;17.17;;;4.80;99.90;;;;;;5080444;28;20190;-89
2021/12/26 10:07:26;;;;;;;18.27;16.00;;;4.80;99.90;;;;;;5086719;28;20206;-86
2021/12/26 10:09:54;;;;;;;20.17;16.63;;;4.90;99.90;;;;;;5086015;28;20276;-89
2021/12/26 10:12:23;;;;;;;21.60;17.73;;;4.70;99.90;;;;;;5085277;28;20198;-87
2021/12/26 10:14:54;;;;;;;18.43;16.50;;;4.50;99.90;;;;;;5084783;28;20284;-86
2021/12/26 10:17:26;;;;;;;19.70;16.60;;;4.50;99.90;;;;;;5085618;28;20679;-86
2021/12/26 10:20:00;;;;;;;21.77;16.23;;;4.60;99.90;;;;;;5084932;28;20554;-86
2021/12/26 10:22:29;;;;;;;20.77;17.90;;;4.90;99.90;;;;;;5073849;28;20201;-85
2021/12/26 10:24:58;;;;;;;21.07;16.77;;;5.00;99.90;;;;;;5077250;28;20579;-86
2021/12/26 10:27:29;;;;;;;21.60;16.60;;;5.00;99.90;;;;;;5085070;28;20201;-85
2021/12/26 10:29:59;;;;;;;20.53;17.77;;;5.10;99.90;;;;;;5082845;28;20197;-88
2021/12/26 10:32:37;;;;;;;22.47;16.87;;;5.30;99.90;;;;;;5084039;28;20576;-87
2021/12/26 10:35:07;;;;;;;19.20;17.00;;;5.20;99.90;;;;;;5084377;28;20208;-81
2021/12/26 10:37:37;;;;;;;24.00;16.93;;;5.10;99.90;;;;;;5084436;28;20258;-81
2021/12/26 10:40:10;;;;;;;23.70;19.10;;;5.50;99.90;;;;;;5081263;28;20213;-81
2021/12/26 10:42:41;;;;;;;23.52;21.15;;;5.70;99.90;;;;;;5082737;28;20922;-82
2021/12/26 10:45:11;;;;;;;18.80;16.90;;;6.10;99.90;;;;;;5082719;28;20197;-84
2021/12/26 10:47:40;;;;;;;18.50;16.47;;;6.30;99.90;;;;;;5081401;28;20578;-83
2021/12/26 10:50:11;;;;;;;20.10;16.67;;;6.50;99.90;;;;;;5082873;28;20224;-83
2021/12/26 10:52:39;;;;;;;19.70;17.03;;;6.50;99.90;;;;;;5083688;28;20197;-84
2021/12/26 10:55:09;;;;;;;19.53;17.33;;;6.40;99.90;;;;;;5082086;28;20190;-83
2021/12/26 10:57:38;;;;;;;18.47;16.30;;;6.30;99.90;;;;;;5081595;28;20194;-84
2021/12/26 11:00:14;;;;;;;17.63;15.80;;;6.20;99.90;;;;;;5082989;28;20182;-85
2021/12/26 11:02:42;;;;;;;18.23;15.67;;;6.20;99.90;;;;;;5084517;28;20193;-83
2021/12/26 11:05:13;;;;;;;18.27;16.47;;;6.60;99.90;;;;;;5081527;28;20197;-84
2021/12/26 11:07:44;;;;;;;17.40;15.60;;;6.70;99.90;;;;;;5091182;28;20189;-83
2021/12/26 11:10:14;;;;;;;19.33;16.07;;;6.70;99.90;;;;;;5093339;28;20193;-83
2021/12/26 11:12:45;;;;;;;17.70;15.07;;;6.50;99.90;;;;;;5093537;28;20189;-85
2021/12/26 11:15:13;;;;;;;18.23;15.37;;;6.60;99.90;;;;;;5093098;28;20193;-82
2021/12/26 11:17:44;;;;;;;16.43;14.30;;;6.90;99.90;;;;;;5093181;28;20194;-84
2021/12/26 11:20:30;;;;;;;17.07;15.27;;;6.70;99.90;;;;;;5092454;28;20644;-83
2021/12/26 11:22:58;;;;;;;17.43;14.90;;;6.80;99.90;;;;;;5093279;28;20205;-84
2021/12/26 11:25:27;;;;;;;16.47;14.70;;;7.00;99.90;;;;;;5093103;28;20193;-82
2021/12/26 11:27:56;;;;;;;15.80;14.20;;;7.00;99.90;;;;;;5093292;28;20287;-87
2021/12/26 11:30:25;;;;;;;19.53;14.40;;;7.20;99.90;;;;;;5092430;28;20574;-87
2021/12/26 11:32:53;;;;;;;15.47;13.80;;;7.50;99.90;;;;;;5092898;28;20212;-85
2021/12/26 11:35:23;;;;;;;19.57;15.03;;;7.10;99.90;;;;;;5091657;28;20599;-88
2021/12/26 11:37:52;;;;;;;16.00;14.30;;;7.00;99.90;;;;;;5092996;28;20656;-83
2021/12/26 11:40:22;;;;;;;15.33;13.77;;;7.20;99.90;;;;;;5086716;28;20523;-87
2021/12/26 11:43:32;;;;;;;16.40;13.50;;;6.90;99.90;;;;;;5078388;28;20213;-86
2021/12/26 11:46:09;;;;;;;16.17;14.47;;;6.90;99.90;;;;;;5073686;28;20211;-80
2021/12/26 11:48:48;;;;;;;15.60;14.00;;;7.00;99.90;;;;;;5078195;28;20579;-86
2021/12/26 11:51:41;;;;;;;16.30;14.60;;;6.80;99.90;;;;;;5085239;28;20189;-85
2021/12/26 11:54:42;;;;;;;15.87;13.80;;;7.00;99.90;;;;;;5079004;28;20660;-81
2021/12/26 11:57:19;;;;;;;16.37;14.50;;;7.20;99.90;;;;;;5060761;28;20197;-87
2021/12/26 12:00:06;;;;;;;15.30;13.80;;;6.90;99.90;;;;;;5075557;28;20212;-87
2021/12/26 12:02:40;;;;;;;16.60;14.80;;;7.10;99.90;;;;;;5080721;28;20220;-79
2021/12/26 12:05:14;;;;;;;17.53;15.53;;;7.40;99.90;;;;;;5081419;28;20617;-86
2021/12/26 12:07:50;;;;;;;16.27;14.57;;;7.40;99.90;;;;;;5075371;28;20657;-82
2021/12/26 12:10:40;;;;;;;18.60;16.60;;;7.50;99.90;;;;;;5075308;28;20338;-82
2021/12/26 12:13:12;;;;;;;16.47;14.77;;;7.50;99.90;;;;;;5075830;28;20547;-81
2021/12/26 12:15:58;;;;;;;16.63;14.93;;;7.70;99.90;;;;;;5074802;28;20623;-83
2021/12/26 12:18:28;;;;;;;17.57;15.23;;;7.50;99.90;;;;;;5073834;28;20217;-79
2021/12/26 12:21:11;;;;;;;18.67;16.67;;;7.70;99.90;;;;;;5074582;28;20232;-81
2021/12/26 12:23:58;;;;;;;18.53;15.80;;;7.70;99.90;;;;;;5075153;28;20205;-81
2021/12/26 12:26:44;;;;;;;19.10;16.00;;;7.70;99.90;;;;;;5075072;28;20201;-82
2021/12/26 12:29:14;;;;;;;17.30;15.50;;;7.60;99.90;;;;;;5075139;28;20548;-83
2021/12/26 12:31:42;;;;;;;21.35;19.25;;;7.30;99.90;;;;;;5074157;28;20485;-82
2021/12/26 12:34:11;;;;;;;18.27;16.37;;;7.20;99.90;;;;;;5074777;28;20212;-81
2021/12/26 12:36:41;;;;;;;17.70;15.90;;;6.70;99.90;;;;;;5074664;28;20687;-81
2021/12/26 12:39:15;;;;;;;18.90;16.73;;;6.60;99.90;;;;;;5077287;28;20205;-82
2021/12/26 12:41:43;;;;;;;20.80;17.40;;;6.70;99.90;;;;;;5082771;28;20230;-82
2021/12/26 12:44:31;;;;;;;21.40;17.93;;;6.70;99.90;;;;;;5076964;28;20205;-81
2021/12/26 12:47:02;;;;;;;26.17;20.67;;;6.80;99.90;;;;;;5082776;28;20219;-80
2021/12/26 12:49:48;;;;;;;23.90;17.77;;;6.90;99.90;;;;;;5094530;28;20224;-81
2021/12/26 12:52:44;;;;;;;20.60;17.90;;;7.20;99.90;;;;;;5093170;28;20201;-81